Terminal Aerodrome Forecast
Issued by NWS

Home | Current Version | Previous Version | Text Only | Print | Product List | Glossary On
Versions: 1 2 3 4 5 6 7 8 9 10 11 12
000
FTUS44 KOUN 221729
TAFGAG
TAF
KGAG 221729Z 2218/2318 18015G25KT P6SM FEW120 SCT250
     FM231400 18012G23KT P6SM SCT030=

USA.gov is the U.S. government's official web portal to all federal, state and local government web resources and services.